UAE600 OMDB-OPKC
Flight info
| Callsign | UAE600 |
|---|---|
| Flight time | N/A |
| Altitude | 41000 |
| Route | IVURO M428 TARBO Z440 DAMUM B524 ALPOR G216 LAKIV |
| Aircraft | A343/H-SDE2E3FGHIJ4J5M1RWXY/LB1D1 |
Departure
| Time | N/A |
|---|---|
| Airport | Dubai International Airport (OMDB) |
Arrival
| Time | 2026-05-09 11:12 |
|---|---|
| Airport | Jinnah International Airport (OPKC) |
| Time | Latitude | Longitude | Altitude | Speed | Heading |
|---|---|---|---|---|---|
| 2026-05-09 10:28 | 24.48616 | 64.46438 | 36808 ft | 481 kts | 82° |
| 2026-05-09 10:29 | 24.49332 | 64.52490 | 36807 ft | 481 kts | 82° |
| 2026-05-09 10:29 | 24.50190 | 64.59775 | 36807 ft | 481 kts | 82° |
| 2026-05-09 10:30 | 24.51046 | 64.67060 | 36808 ft | 481 kts | 82° |
| 2026-05-09 10:30 | 24.51898 | 64.74356 | 36812 ft | 481 kts | 82° |
| 2026-05-09 10:31 | 24.52747 | 64.81645 | 36814 ft | 481 kts | 82° |
| 2026-05-09 10:31 | 24.53434 | 64.88954 | 36812 ft | 481 kts | 85° |
| 2026-05-09 10:32 | 24.53970 | 64.96281 | 36812 ft | 481 kts | 85° |
| 2026-05-09 10:32 | 24.54527 | 65.03607 | 36813 ft | 481 kts | 85° |
| 2026-05-09 10:33 | 24.55011 | 65.09892 | 36816 ft | 481 kts | 84° |
| 2026-05-09 10:33 | 24.55576 | 65.17223 | 36812 ft | 481 kts | 84° |
| 2026-05-09 10:34 | 24.56135 | 65.24491 | 36609 ft | 481 kts | 85° |
| 2026-05-09 10:34 | 24.56684 | 65.31698 | 36193 ft | 465 kts | 84° |
| 2026-05-09 10:34 | 24.56954 | 65.35243 | 35654 ft | 467 kts | 84° |
| 2026-05-09 10:35 | 24.57223 | 65.38801 | 35085 ft | 468 kts | 84° |
| 2026-05-09 10:35 | 24.57493 | 65.42373 | 34470 ft | 471 kts | 84° |
| 2026-05-09 10:35 | 24.57764 | 65.45969 | 33836 ft | 474 kts | 85° |
| 2026-05-09 10:35 | 24.58037 | 65.49601 | 33087 ft | 478 kts | 85° |
| 2026-05-09 10:36 | 24.58309 | 65.53245 | 32369 ft | 480 kts | 85° |
| 2026-05-09 10:36 | 24.58582 | 65.56913 | 31643 ft | 482 kts | 85° |
| 2026-05-09 10:36 | 24.58855 | 65.60590 | 30991 ft | 483 kts | 85° |
| 2026-05-09 10:36 | 24.59123 | 65.64211 | 30495 ft | 480 kts | 84° |
| 2026-05-09 10:37 | 24.59392 | 65.67850 | 29984 ft | 477 kts | 84° |
| 2026-05-09 10:37 | 24.59658 | 65.71473 | 29384 ft | 474 kts | 84° |
| 2026-05-09 10:37 | 24.59922 | 65.75073 | 28832 ft | 470 kts | 84° |
| 2026-05-09 10:37 | 24.60182 | 65.78633 | 28295 ft | 466 kts | 84° |
| 2026-05-09 10:38 | 24.60439 | 65.82176 | 27776 ft | 462 kts | 84° |
| 2026-05-09 10:38 | 24.60693 | 65.85674 | 27257 ft | 458 kts | 84° |
| 2026-05-09 10:38 | 24.60945 | 65.89150 | 26731 ft | 454 kts | 84° |
| 2026-05-09 10:38 | 24.61194 | 65.92602 | 26195 ft | 451 kts | 84° |
| 2026-05-09 10:39 | 24.61440 | 65.96026 | 25684 ft | 448 kts | 84° |
| 2026-05-09 10:39 | 24.61683 | 65.99423 | 25170 ft | 444 kts | 84° |
| 2026-05-09 10:39 | 24.61923 | 66.02786 | 24650 ft | 441 kts | 84° |
| 2026-05-09 10:39 | 24.62162 | 66.06134 | 24134 ft | 437 kts | 84° |
| 2026-05-09 10:40 | 24.62397 | 66.09449 | 23635 ft | 433 kts | 84° |
| 2026-05-09 10:40 | 24.62628 | 66.12720 | 23092 ft | 424 kts | 84° |
| 2026-05-09 10:40 | 24.62852 | 66.15907 | 22570 ft | 411 kts | 84° |
| 2026-05-09 10:40 | 24.63068 | 66.18987 | 22074 ft | 398 kts | 84° |
| 2026-05-09 10:41 | 24.63279 | 66.21996 | 21619 ft | 393 kts | 84° |
| 2026-05-09 10:41 | 24.63489 | 66.24979 | 21151 ft | 390 kts | 84° |
| 2026-05-09 10:41 | 24.63696 | 66.27943 | 20688 ft | 388 kts | 84° |
| 2026-05-09 10:41 | 24.63901 | 66.30888 | 20224 ft | 385 kts | 84° |
| 2026-05-09 10:42 | 24.64104 | 66.33816 | 19761 ft | 382 kts | 84° |
| 2026-05-09 10:42 | 24.64303 | 66.36681 | 19309 ft | 380 kts | 84° |
| 2026-05-09 10:42 | 24.64502 | 66.39570 | 18849 ft | 377 kts | 84° |
| 2026-05-09 10:42 | 24.64699 | 66.42437 | 18388 ft | 375 kts | 85° |
| 2026-05-09 10:43 | 24.64895 | 66.45288 | 17898 ft | 373 kts | 85° |
| 2026-05-09 10:43 | 24.65089 | 66.48129 | 17398 ft | 370 kts | 85° |
| 2026-05-09 10:43 | 24.65281 | 66.50943 | 16933 ft | 367 kts | 85° |
| 2026-05-09 10:43 | 24.65470 | 66.53725 | 16478 ft | 363 kts | 85° |
| 2026-05-09 10:44 | 24.65657 | 66.56480 | 16022 ft | 360 kts | 85° |
| 2026-05-09 10:44 | 24.65844 | 66.59206 | 15600 ft | 356 kts | 85° |
| 2026-05-09 10:44 | 24.66027 | 66.61912 | 15158 ft | 353 kts | 85° |
| 2026-05-09 10:44 | 24.66207 | 66.64591 | 14723 ft | 351 kts | 85° |
| 2026-05-09 10:45 | 24.66386 | 66.67255 | 14300 ft | 348 kts | 85° |
| 2026-05-09 10:46 | 24.67082 | 66.77756 | 12529 ft | 338 kts | 85° |
| 2026-05-09 10:46 | 24.67253 | 66.80320 | 12110 ft | 335 kts | 85° |
| 2026-05-09 10:46 | 24.67423 | 66.82867 | 11686 ft | 333 kts | 85° |
| 2026-05-09 10:46 | 24.67593 | 66.85410 | 11355 ft | 335 kts | 85° |
| 2026-05-09 10:47 | 24.67763 | 66.87974 | 11097 ft | 336 kts | 84° |
| 2026-05-09 10:47 | 24.67931 | 66.90520 | 10660 ft | 333 kts | 84° |
| 2026-05-09 10:47 | 24.68094 | 66.93014 | 10302 ft | 329 kts | 84° |
| 2026-05-09 10:47 | 24.68330 | 66.95516 | 10217 ft | 332 kts | 78° |
| 2026-05-09 10:48 | 24.68995 | 66.97951 | 10141 ft | 333 kts | 67° |
| 2026-05-09 10:48 | 24.69930 | 67.00250 | 9927 ft | 326 kts | 64° |
| 2026-05-09 10:48 | 24.70920 | 67.02500 | 9718 ft | 330 kts | 63° |
| 2026-05-09 10:48 | 24.71938 | 67.04769 | 9452 ft | 327 kts | 63° |
| 2026-05-09 10:49 | 24.72930 | 67.06969 | 9218 ft | 313 kts | 63° |
| 2026-05-09 10:49 | 24.73871 | 67.09053 | 8658 ft | 297 kts | 63° |
| 2026-05-09 10:49 | 24.74785 | 67.11070 | 7806 ft | 293 kts | 64° |
| 2026-05-09 10:49 | 24.75692 | 67.13070 | 6936 ft | 291 kts | 64° |
| 2026-05-09 10:50 | 24.76590 | 67.15050 | 6086 ft | 289 kts | 65° |
| 2026-05-09 10:50 | 24.77482 | 67.17019 | 5226 ft | 287 kts | 65° |
| 2026-05-09 10:50 | 24.78373 | 67.18989 | 4312 ft | 289 kts | 65° |
| 2026-05-09 10:50 | 24.79264 | 67.20960 | 3576 ft | 284 kts | 63° |
| 2026-05-09 10:51 | 24.80144 | 67.22907 | 3142 ft | 286 kts | 63° |
| 2026-05-09 10:51 | 24.81037 | 67.24878 | 3001 ft | 289 kts | 62° |
| 2026-05-09 10:51 | 24.81934 | 67.26861 | 2990 ft | 288 kts | 62° |
| 2026-05-09 10:51 | 24.82822 | 67.28827 | 2987 ft | 285 kts | 62° |
| 2026-05-09 10:52 | 24.83704 | 67.30779 | 2983 ft | 283 kts | 62° |
| 2026-05-09 10:52 | 24.84558 | 67.32671 | 2982 ft | 268 kts | 63° |
| 2026-05-09 10:52 | 24.85366 | 67.34463 | 2979 ft | 254 kts | 62° |
| 2026-05-09 10:52 | 24.86130 | 67.36158 | 2978 ft | 242 kts | 62° |
| 2026-05-09 10:53 | 24.86967 | 67.37729 | 2971 ft | 233 kts | 49° |
| 2026-05-09 10:53 | 24.88148 | 67.38834 | 2965 ft | 216 kts | 25° |
| 2026-05-09 10:53 | 24.89558 | 67.39288 | 2978 ft | 210 kts | 359° |
| 2026-05-09 10:53 | 24.90984 | 67.39094 | 2985 ft | 205 kts | 342° |
| 2026-05-09 10:54 | 24.92342 | 67.38721 | 2979 ft | 196 kts | 341° |
| 2026-05-09 10:54 | 24.93617 | 67.38253 | 2975 ft | 191 kts | 329° |
| 2026-05-09 10:54 | 24.94637 | 67.37382 | 2982 ft | 183 kts | 304° |
| 2026-05-09 10:54 | 24.95177 | 67.36147 | 2975 ft | 179 kts | 276° |
| 2026-05-09 10:55 | 24.95201 | 67.34786 | 2987 ft | 178 kts | 260° |
| 2026-05-09 10:55 | 24.94915 | 67.33455 | 2930 ft | 179 kts | 254° |
| 2026-05-09 10:55 | 24.94579 | 67.32132 | 2694 ft | 180 kts | 255° |
| 2026-05-09 10:55 | 24.94242 | 67.30787 | 2471 ft | 184 kts | 255° |
| 2026-05-09 10:56 | 24.93899 | 67.29427 | 2263 ft | 181 kts | 256° |
| 2026-05-09 10:56 | 24.93577 | 67.28141 | 2062 ft | 166 kts | 255° |
| 2026-05-09 10:56 | 24.93281 | 67.26962 | 1784 ft | 151 kts | 253° |
| 2026-05-09 10:56 | 24.93017 | 67.25917 | 1604 ft | 133 kts | 255° |
| 2026-05-09 10:57 | 24.92771 | 67.24969 | 1447 ft | 127 kts | 253° |
| 2026-05-09 10:57 | 24.92534 | 67.24029 | 1310 ft | 128 kts | 253° |
| 2026-05-09 10:57 | 24.92303 | 67.23071 | 1146 ft | 130 kts | 253° |
| 2026-05-09 10:57 | 24.92057 | 67.22122 | 959 ft | 126 kts | 253° |
| 2026-05-09 10:58 | 24.91830 | 67.21166 | 781 ft | 130 kts | 253° |
| 2026-05-09 10:58 | 24.91584 | 67.20242 | 650 ft | 123 kts | 250° |
| 2026-05-09 10:58 | 24.91357 | 67.19346 | 482 ft | 123 kts | 249° |
| 2026-05-09 10:58 | 24.91113 | 67.18439 | 319 ft | 130 kts | 253° |
| 2026-05-09 10:59 | 24.90875 | 67.17461 | 155 ft | 130 kts | 254° |
| 2026-05-09 10:59 | 24.90624 | 67.16502 | 286 ft | 136 kts | 252° |
| 2026-05-09 10:59 | 24.90352 | 67.15407 | 809 ft | 157 kts | 252° |
| 2026-05-09 10:59 | 24.90068 | 67.14211 | 1442 ft | 162 kts | 255° |
| 2026-05-09 11:00 | 24.89794 | 67.12936 | 1847 ft | 183 kts | 256° |
| 2026-05-09 11:00 | 24.89486 | 67.11493 | 1949 ft | 199 kts | 256° |
| 2026-05-09 11:00 | 24.88977 | 67.10078 | 1976 ft | 201 kts | 233° |
| 2026-05-09 11:00 | 24.87851 | 67.09203 | 1989 ft | 208 kts | 199° |
| 2026-05-09 11:01 | 24.86374 | 67.09194 | 2004 ft | 215 kts | 169° |
| 2026-05-09 11:01 | 24.84980 | 67.09719 | 1992 ft | 217 kts | 162° |
| 2026-05-09 11:01 | 24.83458 | 67.10396 | 1988 ft | 249 kts | 161° |
| 2026-05-09 11:01 | 24.81829 | 67.11207 | 1980 ft | 264 kts | 153° |
| 2026-05-09 11:02 | 24.80502 | 67.12628 | 1986 ft | 272 kts | 124° |
| 2026-05-09 11:02 | 24.79900 | 67.14564 | 1989 ft | 275 kts | 97° |
| 2026-05-09 11:02 | 24.79984 | 67.16687 | 1991 ft | 281 kts | 83° |
| 2026-05-09 11:02 | 24.80295 | 67.18828 | 1993 ft | 285 kts | 81° |
| 2026-05-09 11:03 | 24.80622 | 67.20969 | 1991 ft | 283 kts | 81° |
| 2026-05-09 11:03 | 24.80942 | 67.23099 | 1989 ft | 281 kts | 81° |
| 2026-05-09 11:03 | 24.81272 | 67.25231 | 1997 ft | 285 kts | 78° |
| 2026-05-09 11:03 | 24.81789 | 67.27328 | 1992 ft | 284 kts | 72° |
| 2026-05-09 11:04 | 24.82402 | 67.29385 | 1988 ft | 282 kts | 71° |
| 2026-05-09 11:04 | 24.83024 | 67.31428 | 1985 ft | 283 kts | 71° |
| 2026-05-09 11:04 | 24.83659 | 67.33496 | 1988 ft | 287 kts | 71° |
| 2026-05-09 11:04 | 24.84297 | 67.35573 | 1982 ft | 285 kts | 71° |
| 2026-05-09 11:05 | 24.84939 | 67.37640 | 1982 ft | 287 kts | 71° |
| 2026-05-09 11:05 | 24.85650 | 67.39690 | 1974 ft | 285 kts | 60° |
| 2026-05-09 11:05 | 24.86904 | 67.41263 | 1981 ft | 265 kts | 32° |
| 2026-05-09 11:05 | 24.88544 | 67.41960 | 1976 ft | 245 kts | 1° |
| 2026-05-09 11:06 | 24.90146 | 67.41745 | 1986 ft | 224 kts | 336° |
| 2026-05-09 11:06 | 24.91522 | 67.41113 | 1979 ft | 205 kts | 318° |
| 2026-05-09 11:06 | 24.92397 | 67.40000 | 1985 ft | 185 kts | 296° |
| 2026-05-09 11:06 | 24.92967 | 67.38765 | 1981 ft | 179 kts | 288° |
| 2026-05-09 11:07 | 24.93454 | 67.37488 | 1992 ft | 181 kts | 291° |
| 2026-05-09 11:07 | 24.93966 | 67.36220 | 1985 ft | 181 kts | 291° |
| 2026-05-09 11:07 | 24.94489 | 67.34971 | 1981 ft | 178 kts | 291° |
| 2026-05-09 11:07 | 24.94870 | 67.33692 | 1983 ft | 175 kts | 272° |
| 2026-05-09 11:08 | 24.94707 | 67.32390 | 1990 ft | 171 kts | 252° |
| 2026-05-09 11:08 | 24.94337 | 67.31160 | 1988 ft | 167 kts | 252° |
| 2026-05-09 11:08 | 24.94028 | 67.29974 | 2006 ft | 151 kts | 254° |
| 2026-05-09 11:08 | 24.93760 | 67.28892 | 2015 ft | 142 kts | 255° |
| 2026-05-09 11:09 | 24.93506 | 67.27877 | 1978 ft | 133 kts | 255° |
| 2026-05-09 11:09 | 24.93266 | 67.26924 | 1800 ft | 126 kts | 253° |
| 2026-05-09 11:09 | 24.93034 | 67.26007 | 1648 ft | 125 kts | 254° |
| 2026-05-09 11:09 | 24.92802 | 67.25088 | 1484 ft | 123 kts | 255° |
| 2026-05-09 11:10 | 24.92578 | 67.24200 | 1335 ft | 122 kts | 253° |
| 2026-05-09 11:10 | 24.92348 | 67.23294 | 1179 ft | 123 kts | 252° |
| 2026-05-09 11:10 | 24.92119 | 67.22388 | 1028 ft | 123 kts | 253° |
| 2026-05-09 11:10 | 24.91889 | 67.21481 | 840 ft | 122 kts | 254° |
| 2026-05-09 11:11 | 24.91658 | 67.20564 | 704 ft | 125 kts | 252° |
| 2026-05-09 11:11 | 24.91428 | 67.19654 | 545 ft | 123 kts | 251° |
| 2026-05-09 11:11 | 24.91198 | 67.18744 | 376 ft | 122 kts | 251° |
| 2026-05-09 11:11 | 24.90975 | 67.17869 | 206 ft | 116 kts | 252° |
| 2026-05-09 11:12 | 24.90764 | 67.17030 | 109 ft | 103 kts | 255° |
| 2026-05-09 11:12 | 24.90619 | 67.16460 | 102 ft | 51 kts | 254° |
| 2026-05-09 11:12 | 24.90547 | 67.16182 | 101 ft | 33 kts | 254° |
| 2026-05-09 11:12 | 24.90498 | 67.15990 | 101 ft | 14 kts | 255° |
| 2026-05-09 11:13 | 24.90471 | 67.15880 | 100 ft | 15 kts | 255° |
| 2026-05-09 11:13 | 24.90443 | 67.15793 | 102 ft | 9 kts | 237° |
| 2026-05-09 11:13 | 24.90384 | 67.15766 | 102 ft | 10 kts | 177° |
| 2026-05-09 11:13 | 24.90316 | 67.15782 | 100 ft | 11 kts | 165° |
| 2026-05-09 11:14 | 24.90277 | 67.15800 | 102 ft | 9 kts | 143° |
| 2026-05-09 11:14 | 24.90267 | 67.15863 | 100 ft | 9 kts | 79° |
| 2026-05-09 11:14 | 24.90285 | 67.15937 | 101 ft | 11 kts | 74° |
| 2026-05-09 11:14 | 24.90307 | 67.16024 | 102 ft | 13 kts | 75° |
| 2026-05-09 11:15 | 24.90332 | 67.16127 | 102 ft | 15 kts | 75° |
| 2026-05-09 11:15 | 24.90362 | 67.16245 | 103 ft | 17 kts | 74° |
| 2026-05-09 11:15 | 24.90395 | 67.16376 | 103 ft | 19 kts | 75° |
| 2026-05-09 11:15 | 24.90423 | 67.16484 | 103 ft | 12 kts | 74° |
| 2026-05-09 11:16 | 24.90447 | 67.16579 | 105 ft | 13 kts | 75° |
| 2026-05-09 11:16 | 24.90456 | 67.16661 | 105 ft | 9 kts | 101° |
| 2026-05-09 11:16 | 24.90407 | 67.16703 | 105 ft | 10 kts | 160° |
| 2026-05-09 11:16 | 24.90352 | 67.16759 | 105 ft | 12 kts | 126° |
| 2026-05-09 11:17 | 24.90310 | 67.16822 | 106 ft | 5 kts | 126° |
| 2026-05-09 11:17 | 24.90298 | 67.16840 | 106 ft | 3 kts | 126° |
| 2026-05-09 11:17 | 24.90294 | 67.16847 | 104 ft | 0 kts | 126° |